createdAt,value
2023-05-06T00:02:04.337Z,18.64
2023-05-06T00:04:31.198Z,18.63
2023-05-06T00:06:58.021Z,18.68
2023-05-06T00:09:24.767Z,18.57
2023-05-06T00:11:51.568Z,18.55
2023-05-06T00:14:18.271Z,18.54
2023-05-06T00:16:45.157Z,18.39
2023-05-06T00:19:12.492Z,18.48
2023-05-06T00:21:39.303Z,18.48
2023-05-06T00:24:06.205Z,18.47
2023-05-06T00:26:32.893Z,18.44
2023-05-06T00:28:59.538Z,18.35
2023-05-06T00:31:26.187Z,18.29
2023-05-06T00:33:52.888Z,18.26
2023-05-06T00:36:19.619Z,18.22
2023-05-06T00:38:46.258Z,18.23
2023-05-06T00:41:12.898Z,18.19
2023-05-06T00:43:39.576Z,18.22
2023-05-06T00:46:09.399Z,18.21
2023-05-06T00:48:36.308Z,18.15
2023-05-06T00:51:03.103Z,18.20
2023-05-06T00:53:30.335Z,18.16
2023-05-06T00:55:57.571Z,18.11
2023-05-06T00:58:24.152Z,18.02
2023-05-06T01:00:52.134Z,17.95
2023-05-06T01:03:19.282Z,17.93
2023-05-06T01:06:17.727Z,17.92
2023-05-06T01:08:58.669Z,17.89
2023-05-06T01:11:43.820Z,17.80
2023-05-06T01:14:28.368Z,17.81
2023-05-06T01:16:58.199Z,17.86
2023-05-06T01:19:46.528Z,17.98
2023-05-06T01:22:15.576Z,17.89
2023-05-06T01:24:44.488Z,17.90
2023-05-06T01:27:13.276Z,17.88
2023-05-06T01:29:43.060Z,17.90
2023-05-06T01:32:15.845Z,17.77
2023-05-06T01:34:49.946Z,17.80
2023-05-06T01:37:28.905Z,17.67
2023-05-06T01:39:59.922Z,17.64
2023-05-06T01:42:27.587Z,17.72
2023-05-06T01:44:56.819Z,17.78
2023-05-06T01:47:24.288Z,17.81
2023-05-06T01:49:51.209Z,17.82
2023-05-06T01:52:18.163Z,17.84
2023-05-06T01:54:44.806Z,17.80
2023-05-06T01:57:11.463Z,17.78
2023-05-06T01:59:38.122Z,17.73
2023-05-06T02:02:04.863Z,17.73
2023-05-06T02:04:32.410Z,17.77
2023-05-06T02:06:59.253Z,17.87
2023-05-06T02:09:26.073Z,17.82
2023-05-06T02:11:57.714Z,17.83
2023-05-06T02:14:24.924Z,17.81
2023-05-06T02:16:52.254Z,17.76
2023-05-06T02:19:20.633Z,17.87
2023-05-06T02:21:47.498Z,17.81
2023-05-06T02:24:14.171Z,17.80
2023-05-06T02:26:40.842Z,17.83
2023-05-06T02:29:07.508Z,17.72
2023-05-06T02:31:34.648Z,17.67
2023-05-06T02:34:01.318Z,17.69
2023-05-06T02:36:28.914Z,17.64
2023-05-06T02:38:55.952Z,17.41
2023-05-06T02:41:22.625Z,17.39
2023-05-06T02:43:49.816Z,17.37
2023-05-06T02:46:16.556Z,17.40
2023-05-06T02:48:43.264Z,17.35
2023-05-06T02:51:10.029Z,17.31
2023-05-06T02:53:36.717Z,17.32
2023-05-06T02:56:03.517Z,17.31
2023-05-06T02:58:30.274Z,17.34
2023-05-06T03:00:57.002Z,17.38
2023-05-06T03:03:23.746Z,17.31
2023-05-06T03:05:50.424Z,17.37
2023-05-06T03:08:17.057Z,17.42
2023-05-06T03:10:43.703Z,17.37
2023-05-06T03:13:10.446Z,17.34
2023-05-06T03:15:37.373Z,17.11
2023-05-06T03:18:04.157Z,17.15
2023-05-06T03:20:30.836Z,17.17
2023-05-06T03:22:59.631Z,17.13
2023-05-06T03:25:26.406Z,17.15
2023-05-06T03:27:53.674Z,17.03
2023-05-06T03:30:22.529Z,16.83
2023-05-06T03:32:51.705Z,16.75
2023-05-06T03:35:25.670Z,16.74
2023-05-06T03:37:56.230Z,16.73
2023-05-06T03:40:25.556Z,16.70
2023-05-06T03:42:52.877Z,16.70
2023-05-06T03:45:21.299Z,16.51
2023-05-06T03:47:48.649Z,16.43
2023-05-06T03:50:16.592Z,16.35
2023-05-06T03:52:43.556Z,16.38
2023-05-06T03:55:10.451Z,16.41
2023-05-06T03:57:38.873Z,16.24
2023-05-06T04:00:07.000Z,16.28
2023-05-06T04:02:43.473Z,16.42
2023-05-06T04:05:16.221Z,16.43
2023-05-06T04:07:44.254Z,16.24
2023-05-06T04:10:11.340Z,16.33
2023-05-06T04:12:39.092Z,16.31
2023-05-06T04:15:07.782Z,16.29
2023-05-06T04:17:34.950Z,16.20
2023-05-06T04:20:11.456Z,16.33
2023-05-06T04:22:39.171Z,16.28
2023-05-06T04:25:07.095Z,16.27
2023-05-06T04:27:35.461Z,16.43
2023-05-06T04:30:04.548Z,16.57
2023-05-06T04:32:34.007Z,16.67
2023-05-06T04:35:01.619Z,16.75
2023-05-06T04:37:28.433Z,16.85
2023-05-06T04:40:06.196Z,16.96
2023-05-06T04:42:35.500Z,16.88
2023-05-06T04:45:09.676Z,16.98
2023-05-06T04:47:37.870Z,17.01
2023-05-06T04:50:05.875Z,17.02
2023-05-06T04:52:32.702Z,16.96
2023-05-06T04:54:59.542Z,17.03
2023-05-06T04:57:26.472Z,17.05
2023-05-06T04:59:54.903Z,17.15
2023-05-06T05:02:22.172Z,17.26
2023-05-06T05:04:49.922Z,17.34
2023-05-06T05:07:16.678Z,17.41
2023-05-06T05:09:43.347Z,17.62
2023-05-06T05:12:10.036Z,17.34
2023-05-06T05:14:41.059Z,17.42
2023-05-06T05:17:10.044Z,17.57
2023-05-06T05:19:37.950Z,17.71
2023-05-06T05:22:04.850Z,17.82
2023-05-06T05:24:33.051Z,17.93
2023-05-06T05:26:59.685Z,18.07
2023-05-06T05:29:26.608Z,17.94
2023-05-06T05:31:54.210Z,18.01
2023-05-06T05:34:21.190Z,17.84
2023-05-06T05:36:49.179Z,17.78
2023-05-06T05:39:15.986Z,17.89
2023-05-06T05:41:45.693Z,17.93
2023-05-06T05:44:12.916Z,18.04
2023-05-06T05:46:41.351Z,18.17
2023-05-06T05:49:08.744Z,18.18
2023-05-06T05:51:35.726Z,18.20
2023-05-06T05:54:04.748Z,18.39
2023-05-06T05:56:31.687Z,18.24
2023-05-06T05:58:58.603Z,18.44
2023-05-06T06:01:25.680Z,18.72
2023-05-06T06:03:54.426Z,19.09
2023-05-06T06:06:22.238Z,19.36
2023-05-06T06:08:49.866Z,19.51
2023-05-06T06:11:17.002Z,19.75
2023-05-06T06:13:44.403Z,20.16
2023-05-06T06:16:11.399Z,20.40
2023-05-06T06:18:38.139Z,20.46
2023-05-06T06:21:04.987Z,20.68
2023-05-06T06:23:31.662Z,20.77
2023-05-06T06:25:58.795Z,20.76
2023-05-06T06:28:26.108Z,20.94
2023-05-06T06:30:53.311Z,20.80
2023-05-06T06:33:19.972Z,20.87
2023-05-06T06:35:46.623Z,21.14
2023-05-06T06:38:13.275Z,21.37
2023-05-06T06:40:39.859Z,21.39
2023-05-06T06:43:06.474Z,21.24
2023-05-06T06:45:54.866Z,21.09
2023-05-06T06:48:21.624Z,21.02
2023-05-06T06:50:48.393Z,20.83
2023-05-06T06:53:15.032Z,21.08
2023-05-06T06:55:45.598Z,21.52
2023-05-06T06:58:12.396Z,21.89
2023-05-06T07:00:39.123Z,22.36
2023-05-06T07:03:05.864Z,22.53
2023-05-06T07:05:32.501Z,23.48
2023-05-06T07:07:59.243Z,23.73
2023-05-06T07:10:25.975Z,23.74
2023-05-06T07:12:52.850Z,23.50
2023-05-06T07:15:19.502Z,23.50
2023-05-06T07:17:46.657Z,23.21
2023-05-06T07:20:13.393Z,23.25
2023-05-06T07:22:41.322Z,23.27
2023-05-06T07:25:08.639Z,23.22
2023-05-06T07:27:35.411Z,23.29
2023-05-06T07:30:02.288Z,23.35
2023-05-06T07:32:29.029Z,23.22
2023-05-06T07:34:55.779Z,23.37
2023-05-06T07:37:22.493Z,23.51
2023-05-06T07:39:49.192Z,23.47
2023-05-06T07:42:15.824Z,23.75
2023-05-06T07:44:42.560Z,24.00
2023-05-06T07:47:09.524Z,24.30
2023-05-06T07:49:36.327Z,24.52
2023-05-06T07:52:04.065Z,24.81
2023-05-06T07:54:31.716Z,24.86
2023-05-06T07:56:58.715Z,25.46
2023-05-06T07:59:25.445Z,25.85
2023-05-06T08:01:52.181Z,26.47
2023-05-06T08:04:18.941Z,27.01
2023-05-06T08:06:45.828Z,26.96
2023-05-06T08:09:16.941Z,27.30
2023-05-06T08:11:46.520Z,27.36
2023-05-06T08:14:13.190Z,27.92
2023-05-06T08:16:39.931Z,27.68
2023-05-06T08:19:06.647Z,27.42
2023-05-06T08:21:33.245Z,27.42
2023-05-06T08:23:59.891Z,26.93
2023-05-06T08:26:26.542Z,26.71
2023-05-06T08:28:53.176Z,26.74
2023-05-06T08:31:19.858Z,27.62
2023-05-06T08:33:46.596Z,28.11
2023-05-06T08:36:13.292Z,28.01
2023-05-06T08:38:39.929Z,29.06
2023-05-06T08:41:09.553Z,29.84
2023-05-06T08:43:41.996Z,30.83
2023-05-06T08:46:09.062Z,31.12
2023-05-06T08:48:37.340Z,31.06
2023-05-06T08:51:04.262Z,31.40
2023-05-06T08:53:33.275Z,32.55
2023-05-06T08:56:06.355Z,32.81
2023-05-06T08:58:35.085Z,32.13
2023-05-06T09:01:03.296Z,31.79
2023-05-06T09:03:30.865Z,32.11
2023-05-06T09:05:58.193Z,31.18
2023-05-06T09:08:25.048Z,30.53
2023-05-06T09:10:51.742Z,29.31
2023-05-06T09:13:22.288Z,29.17
2023-05-06T09:15:49.542Z,28.66
2023-05-06T09:18:16.785Z,28.23
2023-05-06T09:20:48.899Z,27.76
2023-05-06T09:23:17.255Z,27.65
2023-05-06T09:25:46.150Z,27.21
2023-05-06T09:28:14.291Z,26.93
2023-05-06T09:30:42.776Z,26.74
2023-05-06T09:33:10.356Z,26.51
2023-05-06T09:35:38.122Z,26.27
2023-05-06T09:38:07.157Z,26.40
2023-05-06T09:40:38.735Z,27.67
2023-05-06T09:43:05.745Z,29.57
2023-05-06T09:45:32.910Z,30.95
2023-05-06T09:48:00.571Z,30.86
2023-05-06T09:50:27.622Z,30.53
2023-05-06T09:52:55.748Z,29.73
2023-05-06T09:55:23.691Z,29.25
2023-05-06T09:57:50.735Z,29.28
2023-05-06T10:00:17.730Z,28.64
2023-05-06T10:02:45.544Z,28.23
2023-05-06T10:05:13.268Z,29.32
2023-05-06T10:07:44.037Z,31.03
2023-05-06T10:10:14.262Z,32.03
2023-05-06T10:12:41.060Z,31.46
2023-05-06T10:15:08.442Z,31.21
2023-05-06T10:17:38.041Z,31.07
2023-05-06T10:20:09.120Z,32.91
2023-05-06T10:23:03.405Z,34.85
2023-05-06T10:25:42.532Z,36.04
2023-05-06T10:28:13.353Z,34.75
2023-05-06T10:30:58.056Z,33.19
2023-05-06T10:33:26.154Z,31.50
2023-05-06T10:35:58.575Z,30.54
2023-05-06T10:38:32.704Z,29.61
2023-05-06T10:41:00.544Z,29.58
2023-05-06T10:43:34.464Z,29.29
2023-05-06T10:46:09.123Z,29.32
2023-05-06T10:48:59.897Z,28.66
2023-05-06T10:51:28.466Z,29.01
2023-05-06T10:54:04.455Z,30.02
2023-05-06T10:56:51.143Z,30.09
2023-05-06T10:59:23.904Z,29.63
2023-05-06T11:01:57.403Z,29.35
2023-05-06T11:04:24.139Z,29.29
2023-05-06T11:06:53.015Z,29.37
2023-05-06T11:09:26.751Z,29.09
2023-05-06T11:12:04.614Z,29.01
2023-05-06T11:14:38.777Z,28.70
2023-05-06T11:17:07.636Z,28.36
2023-05-06T11:19:36.319Z,28.46
2023-05-06T11:22:07.222Z,28.19
2023-05-06T11:24:44.130Z,28.20
2023-05-06T11:27:11.290Z,28.34
2023-05-06T11:29:38.053Z,27.98
2023-05-06T11:32:22.204Z,28.63
2023-05-06T11:34:49.063Z,29.11
2023-05-06T11:37:25.806Z,29.01
2023-05-06T11:39:52.766Z,28.70
2023-05-06T11:42:26.935Z,29.11
2023-05-06T11:44:55.371Z,28.84
2023-05-06T11:47:23.473Z,29.20
2023-05-06T11:49:53.396Z,29.42
2023-05-06T11:52:23.375Z,30.53
2023-05-06T11:54:53.532Z,31.31
2023-05-06T11:57:20.752Z,30.73
2023-05-06T11:59:53.303Z,29.92
2023-05-06T12:02:20.529Z,29.23
2023-05-06T12:04:49.906Z,29.05
2023-05-06T12:07:17.225Z,29.81
2023-05-06T12:09:49.745Z,30.09
2023-05-06T12:12:19.943Z,29.61
2023-05-06T12:14:49.260Z,29.28
2023-05-06T12:17:16.569Z,29.17
2023-05-06T12:19:43.276Z,29.04
2023-05-06T12:22:24.640Z,28.77
2023-05-06T12:24:51.515Z,28.30
2023-05-06T12:27:30.963Z,28.49
2023-05-06T12:29:57.588Z,28.89
2023-05-06T12:32:24.281Z,28.87
2023-05-06T12:34:50.931Z,28.57
2023-05-06T12:37:28.527Z,28.71
2023-05-06T12:39:58.486Z,28.80
2023-05-06T12:42:26.332Z,28.66
2023-05-06T12:44:52.987Z,28.75
2023-05-06T12:47:26.777Z,28.40
2023-05-06T12:49:55.796Z,28.60
2023-05-06T12:52:24.153Z,28.52
2023-05-06T12:54:54.787Z,28.46
2023-05-06T12:57:22.172Z,28.57
2023-05-06T12:59:50.216Z,28.58
2023-05-06T13:02:17.092Z,28.43
2023-05-06T13:04:45.253Z,28.59
2023-05-06T13:07:12.064Z,28.62
2023-05-06T13:09:38.759Z,28.59
2023-05-06T13:12:06.429Z,28.64
2023-05-06T13:14:33.072Z,28.60
2023-05-06T13:17:00.995Z,28.56
2023-05-06T13:19:32.955Z,28.58
2023-05-06T13:22:01.298Z,28.23
2023-05-06T13:24:28.779Z,28.01
2023-05-06T13:26:56.831Z,27.89
2023-05-06T13:29:23.746Z,27.64
2023-05-06T13:31:50.975Z,27.59
2023-05-06T13:34:17.872Z,27.63
2023-05-06T13:36:44.565Z,27.76
2023-05-06T13:39:11.251Z,28.01
2023-05-06T13:41:37.958Z,28.45
2023-05-06T13:44:04.966Z,28.35
2023-05-06T13:46:31.755Z,28.34
2023-05-06T13:48:58.454Z,28.89
2023-05-06T13:51:29.841Z,28.83
2023-05-06T13:53:56.467Z,28.92
2023-05-06T13:56:23.139Z,29.04
2023-05-06T13:58:49.839Z,29.24
2023-05-06T14:01:16.587Z,29.12
2023-05-06T14:03:43.263Z,29.10
2023-05-06T14:06:09.890Z,28.94
2023-05-06T14:08:36.507Z,29.05
2023-05-06T14:11:03.202Z,29.23
2023-05-06T14:13:32.335Z,29.14
2023-05-06T14:15:59.838Z,28.91
2023-05-06T14:18:27.294Z,28.94
2023-05-06T14:20:54.470Z,28.99
2023-05-06T14:23:21.078Z,28.59
2023-05-06T14:25:48.175Z,28.80
2023-05-06T14:28:15.597Z,28.74
2023-05-06T14:30:42.529Z,28.64
2023-05-06T14:33:10.028Z,28.65
2023-05-06T14:35:41.273Z,28.55
2023-05-06T14:38:08.272Z,28.61
2023-05-06T14:40:36.784Z,28.65
2023-05-06T14:43:03.568Z,28.82
2023-05-06T14:45:30.587Z,28.46
2023-05-06T14:47:57.569Z,28.50
2023-05-06T14:50:24.315Z,28.46
2023-05-06T14:52:51.030Z,28.73
2023-05-06T14:55:18.134Z,28.81
2023-05-06T14:57:44.737Z,28.72
2023-05-06T15:00:12.660Z,28.54
2023-05-06T15:02:40.779Z,28.84
2023-05-06T15:05:09.759Z,28.92
2023-05-06T15:07:36.656Z,28.70
2023-05-06T15:10:04.135Z,28.55
2023-05-06T15:12:31.702Z,28.64
2023-05-06T15:14:58.417Z,28.93
2023-05-06T15:17:25.252Z,28.89
2023-05-06T15:19:52.098Z,28.79
2023-05-06T15:22:18.773Z,28.70
2023-05-06T15:24:45.467Z,28.41
2023-05-06T15:27:12.130Z,28.91
2023-05-06T15:29:39.388Z,28.49
2023-05-06T15:32:06.949Z,28.55
2023-05-06T15:34:33.678Z,28.53
2023-05-06T15:37:03.339Z,28.67
2023-05-06T15:39:37.142Z,28.23
2023-05-06T15:42:04.175Z,28.29
2023-05-06T15:44:32.357Z,28.66
2023-05-06T15:46:59.098Z,28.72
2023-05-06T15:49:49.288Z,28.74
2023-05-06T15:52:12.406Z,28.56
2023-05-06T15:54:39.986Z,28.65
2023-05-06T15:57:07.939Z,28.61
2023-05-06T15:59:34.603Z,28.28
2023-05-06T16:02:26.193Z,28.43
2023-05-06T16:04:48.147Z,27.64
2023-05-06T16:07:15.555Z,28.07
2023-05-06T16:09:42.786Z,27.88
2023-05-06T16:12:10.048Z,27.99
2023-05-06T16:14:36.814Z,27.99
2023-05-06T16:17:03.533Z,27.61
2023-05-06T16:19:32.024Z,27.72
2023-05-06T16:21:58.795Z,27.79
2023-05-06T16:24:25.494Z,27.74
2023-05-06T16:26:52.263Z,27.53
2023-05-06T16:29:20.530Z,27.10
2023-05-06T16:31:48.378Z,27.20
2023-05-06T16:34:15.312Z,27.30
2023-05-06T16:36:42.042Z,27.23
2023-05-06T16:39:08.673Z,27.34
2023-05-06T16:41:35.383Z,27.39
2023-05-06T16:44:02.006Z,27.19
2023-05-06T16:46:28.950Z,27.10
2023-05-06T16:48:55.831Z,26.93
2023-05-06T16:51:22.756Z,26.98
2023-05-06T16:53:49.519Z,27.11
2023-05-06T16:56:16.126Z,27.16
2023-05-06T16:58:42.963Z,27.30
2023-05-06T17:01:09.930Z,27.26
2023-05-06T17:03:40.308Z,26.96
2023-05-06T17:06:07.900Z,26.90
2023-05-06T17:08:36.470Z,27.01
2023-05-06T17:11:06.680Z,26.93
2023-05-06T17:13:33.952Z,26.95
2023-05-06T17:16:00.840Z,26.89
2023-05-06T17:18:27.572Z,26.60
2023-05-06T17:20:56.602Z,26.65
2023-05-06T17:23:24.422Z,26.72
2023-05-06T17:25:51.507Z,26.85
2023-05-06T17:28:18.831Z,26.83
2023-05-06T17:30:46.139Z,26.67
2023-05-06T17:33:12.957Z,26.67
2023-05-06T17:35:39.689Z,26.64
2023-05-06T17:38:06.445Z,26.67
2023-05-06T17:40:33.213Z,26.68
2023-05-06T17:43:00.538Z,26.66
2023-05-06T17:45:28.323Z,26.70
2023-05-06T17:47:56.396Z,26.56
2023-05-06T17:50:23.294Z,26.43
2023-05-06T17:52:52.176Z,26.36
2023-05-06T17:55:21.343Z,26.31
2023-05-06T17:57:48.388Z,26.27
2023-05-06T18:00:16.584Z,26.19
2023-05-06T18:02:43.950Z,26.14
2023-05-06T18:05:11.359Z,26.09
2023-05-06T18:07:38.504Z,26.01
2023-05-06T18:10:06.089Z,25.90
2023-05-06T18:12:32.718Z,25.83
2023-05-06T18:15:00.250Z,25.68
2023-05-06T18:17:26.920Z,25.53
2023-05-06T18:19:53.658Z,25.37
2023-05-06T18:22:20.344Z,25.22
2023-05-06T18:24:47.110Z,25.14
2023-05-06T18:27:13.733Z,25.05
2023-05-06T18:29:41.286Z,25.05
2023-05-06T18:32:08.186Z,24.95
2023-05-06T18:34:35.293Z,24.92
2023-05-06T18:37:01.961Z,24.86
2023-05-06T18:39:28.713Z,24.76
2023-05-06T18:41:55.537Z,24.63
2023-05-06T18:44:22.189Z,24.50
2023-05-06T18:46:48.919Z,24.28
2023-05-06T18:49:15.698Z,24.06
2023-05-06T18:51:42.441Z,23.96
2023-05-06T18:54:09.143Z,23.81
2023-05-06T18:56:36.910Z,23.78
2023-05-06T18:59:03.624Z,23.68
2023-05-06T19:01:30.389Z,23.63
2023-05-06T19:03:57.462Z,23.71
2023-05-06T19:06:24.114Z,23.73
2023-05-06T19:08:50.767Z,23.77
2023-05-06T19:11:21.163Z,23.75
2023-05-06T19:13:49.831Z,23.62
2023-05-06T19:16:16.581Z,23.58
2023-05-06T19:18:43.413Z,23.52
2023-05-06T19:21:11.064Z,23.53
2023-05-06T19:23:37.849Z,23.44
2023-05-06T19:26:06.662Z,23.43
2023-05-06T19:28:34.223Z,23.37
2023-05-06T19:31:01.451Z,23.35
2023-05-06T19:33:28.372Z,23.26
2023-05-06T19:35:54.974Z,23.17
2023-05-06T19:38:21.626Z,23.18
2023-05-06T19:40:48.283Z,23.25
2023-05-06T19:43:14.982Z,23.17
2023-05-06T19:45:41.954Z,23.22
2023-05-06T19:48:08.875Z,23.17
2023-05-06T19:50:36.560Z,23.08
2023-05-06T19:53:03.335Z,22.98
2023-05-06T19:55:30.808Z,22.99
2023-05-06T19:57:57.751Z,23.00
2023-05-06T20:00:27.134Z,22.97
2023-05-06T20:02:56.345Z,22.81
2023-05-06T20:05:23.496Z,22.75
2023-05-06T20:07:50.902Z,22.77
2023-05-06T20:10:17.645Z,22.78
2023-05-06T20:12:44.271Z,22.82
2023-05-06T20:15:11.540Z,22.74
2023-05-06T20:17:38.788Z,22.84
2023-05-06T20:20:09.741Z,22.82
2023-05-06T20:22:37.803Z,22.82
2023-05-06T20:25:13.024Z,22.79
2023-05-06T20:27:39.974Z,22.77
2023-05-06T20:30:08.057Z,22.87
2023-05-06T20:32:35.293Z,22.89
2023-05-06T20:35:02.225Z,22.84
2023-05-06T20:37:29.347Z,22.80
2023-05-06T20:39:56.432Z,22.66
2023-05-06T20:42:23.380Z,22.69
2023-05-06T20:44:53.301Z,22.63
2023-05-06T20:47:20.111Z,22.69
2023-05-06T20:49:46.847Z,22.50
2023-05-06T20:52:14.598Z,22.53
2023-05-06T20:54:45.289Z,22.49
2023-05-06T20:57:13.996Z,22.50
2023-05-06T20:59:41.026Z,22.45
2023-05-06T21:02:07.877Z,22.39
2023-05-06T21:04:34.640Z,22.31
2023-05-06T21:07:01.393Z,22.25
2023-05-06T21:09:28.867Z,22.23
2023-05-06T21:11:56.043Z,22.16
2023-05-06T21:14:24.757Z,22.11
2023-05-06T21:16:52.177Z,22.14
2023-05-06T21:19:19.467Z,22.13
2023-05-06T21:21:46.169Z,22.09
2023-05-06T21:24:13.063Z,21.97
2023-05-06T21:26:39.922Z,21.97
2023-05-06T21:29:06.620Z,22.00
2023-05-06T21:31:33.552Z,21.99
2023-05-06T21:34:00.392Z,22.02
2023-05-06T21:36:27.170Z,21.97
2023-05-06T21:39:08.485Z,21.98
2023-05-06T21:41:36.086Z,21.85
2023-05-06T21:44:07.032Z,21.77
2023-05-06T21:46:34.964Z,21.80
2023-05-06T21:49:01.878Z,21.80
2023-05-06T21:51:32.229Z,21.78
2023-05-06T21:53:59.217Z,21.89
2023-05-06T21:56:25.865Z,21.72
2023-05-06T21:58:55.588Z,21.67
2023-05-06T22:01:23.296Z,21.63
2023-05-06T22:03:50.123Z,21.54
2023-05-06T22:06:16.843Z,21.50
2023-05-06T22:08:43.648Z,21.46
2023-05-06T22:11:10.905Z,21.50
2023-05-06T22:13:37.581Z,21.44
2023-05-06T22:16:04.532Z,21.39
2023-05-06T22:18:32.064Z,21.35
2023-05-06T22:20:59.707Z,21.27
2023-05-06T22:23:27.984Z,21.24
2023-05-06T22:25:54.662Z,21.29
2023-05-06T22:28:21.645Z,21.16
2023-05-06T22:30:48.388Z,21.32
2023-05-06T22:33:15.076Z,21.18
2023-05-06T22:35:41.782Z,21.24
2023-05-06T22:38:08.495Z,21.25
2023-05-06T22:40:35.493Z,21.22
2023-05-06T22:43:03.215Z,21.22
2023-05-06T22:45:29.926Z,21.15
2023-05-06T22:47:56.840Z,21.06
2023-05-06T22:50:24.874Z,21.02
2023-05-06T22:52:51.562Z,20.88
2023-05-06T22:55:18.235Z,20.84
2023-05-06T22:57:45.181Z,20.76
2023-05-06T23:00:12.866Z,20.62
2023-05-06T23:02:39.800Z,20.76
2023-05-06T23:05:06.669Z,20.83
2023-05-06T23:07:33.324Z,20.83
2023-05-06T23:10:00.547Z,20.80
2023-05-06T23:12:28.043Z,20.75
2023-05-06T23:14:54.677Z,20.67
2023-05-06T23:17:21.360Z,20.67
2023-05-06T23:19:47.964Z,20.71
2023-05-06T23:22:14.699Z,20.73
2023-05-06T23:24:42.225Z,20.75
2023-05-06T23:27:08.982Z,20.72
2023-05-06T23:29:36.021Z,20.61
2023-05-06T23:32:02.851Z,20.57
2023-05-06T23:34:29.498Z,20.59
2023-05-06T23:36:56.550Z,20.58
2023-05-06T23:39:23.347Z,20.54
2023-05-06T23:41:50.097Z,20.17
2023-05-06T23:44:16.800Z,20.09
2023-05-06T23:46:43.462Z,19.96
2023-05-06T23:49:10.179Z,19.89
2023-05-06T23:51:36.868Z,19.78
2023-05-06T23:54:03.552Z,19.75
2023-05-06T23:56:30.208Z,19.72
2023-05-06T23:58:56.917Z,19.83
